Time;durP1;ratioP1;P1;durP2;ratioP2;P2;SDS_P1;SDS_P2;PMS_P1;PMS_P2;Temp;Humidity;BMP_temperature;BMP_pressure;BME280_temperature;BME280_humidity;BME280_pressure;Samples;Min_cycle;Max_cycle;Signal;HPM_P1;HPM_P2
2021/12/10 00:02:09;;;;;;;1.42;1.42;;;0.30;99.90;;;;;;6049836;23;20021;-87
2021/12/10 00:04:40;;;;;;;2.17;2.00;;;0.30;99.90;;;;;;6049593;23;20349;-87
2021/12/10 00:07:14;;;;;;;1.80;1.67;;;0.60;99.90;;;;;;6067591;23;20031;-87
2021/12/10 00:09:50;;;;;;;3.45;1.88;;;0.50;99.90;;;;;;6069128;23;20033;-87
2021/12/10 00:12:29;;;;;;;7.85;1.83;;;0.50;99.90;;;;;;6067152;23;20034;-88
2021/12/10 00:14:57;;;;;;;1.88;1.77;;;0.40;99.90;;;;;;6069640;23;20022;-88
2021/12/10 00:17:25;;;;;;;2.40;2.20;;;0.40;99.90;;;;;;6107202;23;20010;-87
2021/12/10 00:19:56;;;;;;;6.07;2.97;;;0.40;99.90;;;;;;6072539;23;20022;-88
2021/12/10 00:22:38;;;;;;;;;;;0.40;99.90;;;;;;6104739;23;20022;-87
2021/12/10 00:25:16;;;;;;;1.95;1.63;;;0.40;99.90;;;;;;6049676;23;19925;-87
2021/12/10 00:27:50;;;;;;;3.55;1.40;;;0.30;99.90;;;;;;6096048;23;20037;-87
2021/12/10 00:30:25;;;;;;;2.78;1.30;;;0.30;99.90;;;;;;6130889;23;20026;-87
2021/12/10 00:33:10;;;;;;;6.03;2.05;;;0.30;99.90;;;;;;6121712;23;20018;-87
2021/12/10 00:35:39;;;;;;;3.63;1.35;;;0.40;99.90;;;;;;6072271;23;20045;-87
2021/12/10 00:38:08;;;;;;;1.30;1.30;;;0.40;99.90;;;;;;6131318;23;20186;-87
2021/12/10 00:40:37;;;;;;;2.95;1.55;;;0.30;99.90;;;;;;6103775;23;20014;-87
2021/12/10 00:43:04;;;;;;;3.50;1.45;;;0.40;99.90;;;;;;6123774;23;20025;-87
2021/12/10 00:45:32;;;;;;;4.35;3.53;;;0.40;99.90;;;;;;6075336;23;20037;-87
2021/12/10 00:48:02;;;;;;;1.98;1.73;;;0.50;99.90;;;;;;6076183;23;20033;-87
2021/12/10 00:50:42;;;;;;;1.95;1.85;;;0.50;99.90;;;;;;6073700;23;20022;-87
2021/12/10 00:53:10;;;;;;;4.88;1.85;;;0.40;99.90;;;;;;6084963;23;20018;-87
2021/12/10 00:55:38;;;;;;;1.98;1.80;;;0.30;99.90;;;;;;6074548;23;20029;-88
2021/12/10 00:58:06;;;;;;;1.35;1.20;;;0.30;99.90;;;;;;6049653;23;20026;-87
2021/12/10 01:00:49;;;;;;;1.70;1.40;;;0.40;99.90;;;;;;6050525;23;20017;-87
2021/12/10 01:03:25;;;;;;;1.42;1.20;;;0.20;99.90;;;;;;6102407;23;20025;-87
2021/12/10 01:05:56;;;;;;;1.75;1.65;;;0.20;99.90;;;;;;6074211;23;20037;-87
2021/12/10 01:08:24;;;;;;;2.13;2.03;;;0.20;99.90;;;;;;6073435;23;20347;-87
2021/12/10 01:10:58;;;;;;;1.48;1.27;;;0.20;99.90;;;;;;6050247;23;20456;-87
2021/12/10 01:13:31;;;;;;;2.60;1.42;;;0.20;99.90;;;;;;6049996;23;20026;-86
2021/12/10 01:23:38;;;;;;;2.40;1.52;;;0.20;99.90;;;;;;6050142;23;20025;-87
2021/12/10 01:24:53;;;;;;;2.92;1.58;;;0.10;99.90;;;;;;6108756;23;20025;-88
2021/12/10 01:27:30;;;;;;;2.38;1.92;;;0.00;99.90;;;;;;6101847;23;20351;-87
2021/12/10 01:30:03;;;;;;;2.80;1.92;;;0.00;99.90;;;;;;6106661;23;20334;-85
2021/12/10 01:32:34;;;;;;;2.35;2.25;;;0.00;99.90;;;;;;6074671;23;20022;-87
2021/12/10 01:35:05;;;;;;;4.57;3.40;;;0.00;99.90;;;;;;6074256;23;20022;-87
2021/12/10 01:37:32;;;;;;;1.77;1.67;;;0.00;99.90;;;;;;6074557;23;20465;-87
2021/12/10 01:40:02;;;;;;;1.80;1.70;;;0.00;99.90;;;;;;6043163;23;20031;-87
2021/12/10 01:42:43;;;;;;;2.45;2.35;;;-0.10;99.90;;;;;;6044074;23;20446;-87
2021/12/10 01:45:22;;;;;;;1.92;1.83;;;-0.10;99.90;;;;;;6079455;23;20014;-88
2021/12/10 01:48:03;;;;;;;2.53;2.33;;;-0.10;99.90;;;;;;6070863;23;20374;-87
2021/12/10 01:50:31;;;;;;;6.28;3.03;;;-0.20;99.90;;;;;;6101422;23;20029;-87
2021/12/10 01:53:05;;;;;;;2.75;2.42;;;-0.30;99.90;;;;;;6102853;23;20036;-88
2021/12/10 01:55:37;;;;;;;5.18;2.00;;;-0.30;99.90;;;;;;6021447;23;20034;-87
2021/12/10 01:58:12;;;;;;;8.00;3.47;;;-0.30;99.90;;;;;;6020894;23;20026;-87
2021/12/10 02:00:48;;;;;;;2.97;2.10;;;-0.40;99.90;;;;;;6069592;23;20011;-87
2021/12/10 02:03:18;;;;;;;2.00;1.70;;;-0.50;99.90;;;;;;6048805;23;20529;-87
2021/12/10 02:05:46;;;;;;;1.60;1.50;;;-0.50;99.90;;;;;;6055513;23;20021;-87
2021/12/10 02:08:14;;;;;;;2.78;2.58;;;-0.60;99.90;;;;;;6021065;23;20053;-87
2021/12/10 02:10:42;;;;;;;2.42;2.33;;;-0.70;99.90;;;;;;6044637;23;20041;-87
2021/12/10 02:13:11;;;;;;;5.45;2.90;;;-0.70;99.90;;;;;;6054804;23;20015;-87
2021/12/10 02:15:39;;;;;;;2.40;2.28;;;-0.80;99.90;;;;;;6021286;23;20033;-88
2021/12/10 02:18:09;;;;;;;3.17;2.15;;;-0.70;99.90;;;;;;6043864;23;20026;-88
2021/12/10 02:20:50;;;;;;;2.75;2.55;;;-0.70;99.90;;;;;;6022028;23;20014;-88
2021/12/10 02:23:19;;;;;;;4.40;2.30;;;-0.70;99.90;;;;;;6048663;23;20018;-87
2021/12/10 02:25:48;;;;;;;3.65;2.45;;;-0.70;99.90;;;;;;6021680;23;20026;-87
2021/12/10 02:28:16;;;;;;;3.17;2.42;;;-0.80;99.90;;;;;;6020167;23;20053;-87
2021/12/10 02:30:44;;;;;;;2.42;2.22;;;-0.90;99.90;;;;;;6051239;23;20034;-87
2021/12/10 02:33:13;;;;;;;2.97;2.72;;;-0.90;99.90;;;;;;6045251;23;20018;-87
2021/12/10 02:35:41;;;;;;;6.72;2.92;;;-0.90;99.90;;;;;;6045271;23;20034;-87
2021/12/10 02:38:09;;;;;;;2.00;1.90;;;-0.90;99.90;;;;;;6044379;23;20015;-87
2021/12/10 02:40:41;;;;;;;2.78;2.58;;;-0.80;99.90;;;;;;6058630;23;20018;-87
2021/12/10 02:43:22;;;;;;;2.72;2.50;;;-0.80;99.90;;;;;;6049923;23;20342;-88
2021/12/10 02:45:54;;;;;;;5.07;3.45;;;-0.90;99.90;;;;;;6074159;23;20025;-88
2021/12/10 02:48:24;;;;;;;3.80;3.50;;;-1.00;99.90;;;;;;6049581;23;20037;-87
2021/12/10 02:50:53;;;;;;;3.10;2.90;;;-1.00;99.90;;;;;;6049184;23;20033;-87
2021/12/10 02:53:27;;;;;;;3.05;2.53;;;-1.10;99.90;;;;;;6097224;23;20045;-87
2021/12/10 02:55:58;;;;;;;2.95;2.53;;;-1.10;99.90;;;;;;6047749;23;20037;-87
2021/12/10 02:58:27;;;;;;;11.13;3.13;;;-1.30;99.90;;;;;;6080595;23;20018;-87
2021/12/10 03:01:09;;;;;;;4.90;4.45;;;-1.40;99.90;;;;;;6083565;23;20015;-87
2021/12/10 03:03:42;;;;;;;2.03;1.90;;;-1.40;99.90;;;;;;6099304;23;20029;-87
2021/12/10 03:06:11;;;;;;;4.32;2.20;;;-1.50;99.90;;;;;;6073737;23;20022;-86
2021/12/10 03:08:56;;;;;;;2.78;2.58;;;-1.50;99.90;;;;;;6049681;23;20026;-88
2021/12/10 03:11:36;;;;;;;2.97;2.63;;;-1.50;99.90;;;;;;6050554;23;20029;-87
2021/12/10 03:14:19;;;;;;;5.35;2.88;;;-1.90;99.90;;;;;;6052757;23;20014;-90
2021/12/10 03:16:50;;;;;;;4.00;3.20;;;-1.90;99.90;;;;;;6055155;23;20025;-90
2021/12/10 03:19:20;;;;;;;3.45;3.15;;;-1.90;99.90;;;;;;6102505;23;20326;-90
2021/12/10 03:21:51;;;;;;;3.17;2.88;;;-1.80;99.90;;;;;;6102126;23;20018;-90
2021/12/10 03:24:25;;;;;;;3.08;2.72;;;-1.90;99.90;;;;;;6096993;23;20345;-87
2021/12/10 03:26:57;;;;;;;7.55;2.47;;;-1.90;99.90;;;;;;6128590;23;20026;-86
2021/12/10 03:29:26;;;;;;;2.97;2.78;;;-2.20;99.90;;;;;;6107640;23;20018;-86
2021/12/10 03:31:57;;;;;;;8.50;2.75;;;-2.60;99.90;;;;;;6072824;23;20021;-87
2021/12/10 03:34:24;;;;;;;2.67;2.42;;;-2.70;99.90;;;;;;6105157;23;20018;-87
2021/12/10 03:36:53;;;;;;;2.15;2.05;;;-2.60;99.90;;;;;;6073505;23;20025;-87
2021/12/10 03:39:24;;;;;;;2.55;2.40;;;-2.50;99.90;;;;;;6096896;23;20034;-87
2021/12/10 03:41:53;;;;;;;;;;;-2.80;99.90;;;;;;6073699;23;20361;-87
2021/12/10 03:44:21;;;;;;;3.70;3.40;;;-3.00;99.90;;;;;;6072432;23;19921;-86
2021/12/10 03:46:50;;;;;;;4.68;2.65;;;-3.00;99.90;;;;;;6079262;23;20018;-87
2021/12/10 03:49:18;;;;;;;2.95;2.67;;;-2.80;99.90;;;;;;6133386;23;20337;-86
2021/12/10 03:51:46;;;;;;;3.75;2.78;;;-2.80;99.90;;;;;;6120643;23;20037;-87
2021/12/10 03:54:17;;;;;;;3.80;3.47;;;-2.80;99.90;;;;;;6105566;23;20025;-87
2021/12/10 03:56:49;;;;;;;3.33;3.05;;;-2.80;99.90;;;;;;6107633;23;20014;-87
2021/12/10 03:59:19;;;;;;;4.20;2.55;;;-2.80;99.90;;;;;;6071338;23;20081;-88
2021/12/10 04:01:52;;;;;;;4.75;4.28;;;-2.80;99.90;;;;;;6073693;23;20022;-86
2021/12/10 04:04:33;;;;;;;3.97;3.70;;;-2.70;99.90;;;;;;6121146;23;20040;-87
2021/12/10 04:07:06;;;;;;;4.90;4.20;;;-2.70;99.90;;;;;;6126394;23;20026;-86
2021/12/10 04:09:34;;;;;;;7.57;5.18;;;-2.70;99.90;;;;;;6097137;23;20014;-86
2021/12/10 04:12:03;;;;;;;4.05;3.70;;;-2.70;99.90;;;;;;6072321;23;20354;-86
2021/12/10 04:14:31;;;;;;;6.05;4.22;;;-2.60;99.90;;;;;;6104992;23;20356;-87
2021/12/10 04:17:00;;;;;;;9.27;5.65;;;-2.60;99.90;;;;;;6133722;23;20434;-86
2021/12/10 04:19:29;;;;;;;7.15;5.10;;;-2.60;99.90;;;;;;6102220;23;20524;-87
2021/12/10 04:21:59;;;;;;;5.22;4.55;;;-2.60;99.90;;;;;;6073911;23;20017;-84
2021/12/10 04:24:31;;;;;;;17.02;5.68;;;-3.00;99.90;;;;;;6099111;23;20029;-87
2021/12/10 04:27:01;;;;;;;8.80;4.53;;;-3.50;99.90;;;;;;6078885;23;20026;-86
2021/12/10 04:29:30;;;;;;;6.20;3.83;;;-3.70;99.90;;;;;;6133292;23;20021;-86
2021/12/10 04:32:00;;;;;;;4.78;3.85;;;-3.50;99.90;;;;;;6074259;23;20026;-86
2021/12/10 04:34:28;;;;;;;21.30;4.88;;;-3.40;99.90;;;;;;6105991;23;20044;-86
2021/12/10 04:36:58;;;;;;;4.68;4.28;;;-3.60;99.90;;;;;;6084856;23;20014;-86
2021/12/10 04:39:29;;;;;;;9.63;5.32;;;-3.90;99.90;;;;;;6127648;23;20022;-85
2021/12/10 04:41:57;;;;;;;6.45;5.28;;;-4.00;99.90;;;;;;6132765;23;20010;-86
2021/12/10 04:44:25;;;;;;;5.65;5.18;;;-3.80;99.90;;;;;;6074726;23;20013;-85
2021/12/10 04:46:53;;;;;;;7.07;4.45;;;-3.70;99.90;;;;;;6104501;23;20025;-86
2021/12/10 04:49:21;;;;;;;5.93;4.43;;;-3.70;99.90;;;;;;6134812;23;20018;-86
2021/12/10 04:51:53;;;;;;;5.00;4.18;;;-3.70;99.90;;;;;;6050127;23;20473;-86
2021/12/10 04:54:24;;;;;;;6.35;4.22;;;-3.70;99.90;;;;;;6106664;23;20029;-85
2021/12/10 04:56:54;;;;;;;12.00;5.20;;;-3.80;99.90;;;;;;6134781;23;20014;-85
2021/12/10 04:59:23;;;;;;;7.35;4.38;;;-4.10;99.90;;;;;;6101784;23;20022;-86
2021/12/10 05:02:12;;;;;;;5.22;4.82;;;-4.30;99.90;;;;;;6133989;23;20014;-85
2021/12/10 05:05:25;;;;;;;8.23;5.97;;;-4.30;99.90;;;;;;6098292;23;20473;-86
2021/12/10 05:08:21;;;;;;;8.73;4.03;;;-4.40;99.90;;;;;;6122864;23;20521;-85
2021/12/10 05:10:49;;;;;;;5.80;5.20;;;-4.30;99.90;;;;;;6073752;23;20025;-86
2021/12/10 05:13:17;;;;;;;7.05;4.80;;;-4.20;99.90;;;;;;6098146;23;20022;-86
2021/12/10 05:15:45;;;;;;;6.68;4.47;;;-4.20;99.90;;;;;;6050043;23;20022;-86
2021/12/10 05:18:14;;;;;;;62.83;13.38;;;-4.20;99.90;;;;;;6098011;23;20021;-86
2021/12/10 05:20:44;;;;;;;154.25;15.05;;;-4.20;99.90;;;;;;6132441;23;20014;-86
2021/12/10 05:23:14;;;;;;;5.53;4.45;;;-4.60;99.90;;;;;;6126517;23;20457;-86
2021/12/10 05:25:43;;;;;;;7.25;6.45;;;-4.80;99.90;;;;;;6084075;23;20010;-86
2021/12/10 05:28:12;;;;;;;8.85;5.28;;;-5.10;99.90;;;;;;6049583;23;20038;-86
2021/12/10 05:30:40;;;;;;;6.15;5.10;;;-5.20;99.90;;;;;;6104701;23;20349;-86
2021/12/10 05:33:14;;;;;;;6.88;5.65;;;-5.20;99.90;;;;;;6073990;23;20025;-82
2021/12/10 05:35:43;;;;;;;4.32;3.47;;;-5.30;99.90;;;;;;6125869;23;20018;-85
2021/12/10 05:38:11;;;;;;;7.43;6.30;;;-5.30;99.90;;;;;;6106325;23;20059;-85
2021/12/10 05:40:41;;;;;;;5.63;4.55;;;-5.10;99.90;;;;;;6098141;23;20022;-78
2021/12/10 05:43:09;;;;;;;9.98;4.97;;;-4.60;99.90;;;;;;6125820;23;20018;-78
2021/12/10 05:45:41;;;;;;;7.90;5.43;;;-4.40;99.90;;;;;;6132335;23;20033;-78
2021/12/10 05:48:08;;;;;;;8.30;6.80;;;-4.10;99.90;;;;;;6124105;23;20030;-78
2021/12/10 05:50:37;;;;;;;8.55;6.13;;;-3.90;99.90;;;;;;6130343;23;20018;-78
2021/12/10 05:53:06;;;;;;;8.65;6.32;;;-4.30;99.90;;;;;;6121381;23;20014;-78
2021/12/10 05:55:36;;;;;;;7.53;3.90;;;-4.60;99.90;;;;;;6073117;23;20468;-79
2021/12/10 05:58:05;;;;;;;7.80;4.88;;;-5.30;99.90;;;;;;6132197;23;20021;-78
2021/12/10 06:00:37;;;;;;;9.50;6.25;;;-5.60;99.90;;;;;;6107538;23;20330;-78
2021/12/10 06:03:06;;;;;;;5.25;4.53;;;-5.70;99.90;;;;;;6096462;23;20032;-77
2021/12/10 06:05:34;;;;;;;13.32;6.68;;;-5.60;99.90;;;;;;6107656;23;20464;-77
2021/12/10 06:08:04;;;;;;;7.03;5.10;;;-5.30;99.90;;;;;;6124398;23;20349;-79
2021/12/10 06:10:33;;;;;;;11.10;6.38;;;-5.10;99.90;;;;;;6096943;23;20487;-77
2021/12/10 06:13:02;;;;;;;9.68;5.13;;;-4.80;99.90;;;;;;6106808;23;20010;-78
2021/12/10 06:15:30;;;;;;;8.60;6.22;;;-4.70;99.90;;;;;;6126502;23;20025;-78
2021/12/10 06:17:58;;;;;;;9.77;4.30;;;-4.60;99.90;;;;;;6133207;23;20010;-77
2021/12/10 06:20:30;;;;;;;7.38;4.55;;;-4.50;99.90;;;;;;6133416;23;20025;-77
2021/12/10 06:22:59;;;;;;;7.57;5.00;;;-4.70;99.90;;;;;;6128496;23;20488;-80
2021/12/10 06:25:30;;;;;;;6.50;6.00;;;-5.30;99.90;;;;;;6108154;23;20021;-78
2021/12/10 06:28:02;;;;;;;7.13;3.92;;;-5.70;99.90;;;;;;6095878;23;20026;-79
2021/12/10 06:30:37;;;;;;;7.97;6.45;;;-6.00;99.90;;;;;;6080823;23;20486;-80
2021/12/10 06:33:08;;;;;;;6.30;5.10;;;-6.10;99.90;;;;;;6073994;23;20476;-79
2021/12/10 06:35:39;;;;;;;7.35;5.25;;;-5.80;99.90;;;;;;6100239;23;20429;-78
2021/12/10 06:38:08;;;;;;;7.03;5.47;;;-5.60;99.90;;;;;;6097049;23;20018;-78
2021/12/10 06:40:38;;;;;;;6.70;5.35;;;-5.20;99.90;;;;;;6101624;23;20018;-79
2021/12/10 06:43:06;;;;;;;5.03;4.63;;;-4.80;99.90;;;;;;6096259;23;20349;-79
2021/12/10 06:45:36;;;;;;;8.65;4.10;;;-4.50;99.90;;;;;;6133405;23;20014;-79
2021/12/10 06:48:06;;;;;;;7.60;5.32;;;-4.30;99.90;;;;;;6124021;23;20048;-79
2021/12/10 06:50:42;;;;;;;7.00;6.40;;;-4.10;99.90;;;;;;6072544;23;20018;-79
2021/12/10 06:53:11;;;;;;;14.27;6.50;;;-3.90;99.90;;;;;;6132947;23;20041;-79
2021/12/10 06:55:39;;;;;;;8.63;5.80;;;-3.90;99.90;;;;;;6096750;23;20029;-79
2021/12/10 06:58:08;;;;;;;5.55;5.05;;;-4.10;99.90;;;;;;6072598;23;20453;-79
2021/12/10 07:00:49;;;;;;;4.00;3.42;;;-4.50;99.90;;;;;;6106819;23;20017;-79
2021/12/10 07:03:21;;;;;;;6.95;6.07;;;-4.90;99.90;;;;;;6072051;23;20037;-79
2021/12/10 07:05:50;;;;;;;;;;;-5.10;99.90;;;;;;6073996;23;20014;-79
2021/12/10 07:08:20;;;;;;;8.35;3.03;;;-5.50;99.90;;;;;;6122945;23;19917;-79
2021/12/10 07:10:49;;;;;;;5.50;4.82;;;-5.70;99.90;;;;;;6072417;23;20018;-79
2021/12/10 07:13:17;;;;;;;4.30;4.00;;;-5.50;99.90;;;;;;6104889;23;20017;-79
2021/12/10 07:15:48;;;;;;;1.88;1.75;;;-5.00;99.90;;;;;;6099073;23;20030;-79
2021/12/10 07:18:28;;;;;;;3.35;3.15;;;-4.60;99.90;;;;;;6069645;23;20022;-79
2021/12/10 07:20:56;;;;;;;5.00;4.53;;;-4.20;99.90;;;;;;6096696;23;20018;-81
2021/12/10 07:23:24;;;;;;;10.75;6.38;;;-4.00;99.90;;;;;;6100927;23;20025;-79
2021/12/10 07:25:52;;;;;;;4.00;3.72;;;-3.90;99.90;;;;;;6133061;23;20464;-79
2021/12/10 07:28:21;;;;;;;4.53;4.15;;;-3.80;99.90;;;;;;6093093;23;20026;-79
2021/12/10 07:30:50;;;;;;;4.25;3.95;;;-3.80;99.90;;;;;;6102096;23;20017;-78
2021/12/10 07:33:18;;;;;;;4.53;3.83;;;-3.70;99.90;;;;;;6130989;23;20014;-78
2021/12/10 07:35:48;;;;;;;6.95;4.78;;;-3.70;99.90;;;;;;6124028;23;20346;-79
2021/12/10 07:38:17;;;;;;;24.15;6.80;;;-3.80;99.90;;;;;;6130195;23;20457;-79
2021/12/10 07:40:45;;;;;;;6.22;4.90;;;-3.90;99.90;;;;;;6087380;23;20034;-79
2021/12/10 07:43:22;;;;;;;5.88;5.32;;;-4.00;99.90;;;;;;6096619;23;20031;-78
2021/12/10 07:45:53;;;;;;;9.85;5.28;;;-3.90;99.90;;;;;;6068611;23;20033;-78
2021/12/10 07:48:26;;;;;;;5.43;4.93;;;-3.90;99.90;;;;;;6067366;23;20350;-79
2021/12/10 07:51:00;;;;;;;7.50;5.68;;;-3.90;99.90;;;;;;6069640;23;20034;-78
2021/12/10 07:53:33;;;;;;;6.28;4.97;;;-3.90;99.90;;;;;;6078475;23;20030;-79
2021/12/10 07:56:05;;;;;;;10.82;7.05;;;-4.00;99.90;;;;;;6070608;23;20484;-79
2021/12/10 07:58:34;;;;;;;7.15;5.07;;;-4.10;99.90;;;;;;6101563;23;20029;-79
2021/12/10 08:01:08;;;;;;;4.72;4.25;;;-4.20;99.90;;;;;;6043723;23;20015;-79
2021/12/10 08:03:37;;;;;;;9.63;4.38;;;-4.30;99.90;;;;;;6072027;23;20068;-78
2021/12/10 08:06:05;;;;;;;4.13;3.83;;;-4.30;99.90;;;;;;6044928;23;20362;-78
2021/12/10 08:08:34;;;;;;;5.18;4.35;;;-4.20;99.90;;;;;;6104603;23;20458;-79
2021/12/10 08:11:05;;;;;;;4.72;4.18;;;-4.30;99.90;;;;;;6043383;23;20022;-78
2021/12/10 08:13:35;;;;;;;5.07;4.63;;;-4.40;99.90;;;;;;6068773;23;20022;-79
2021/12/10 08:16:05;;;;;;;5.03;4.53;;;-4.30;99.90;;;;;;6045078;23;20026;-79
2021/12/10 08:18:33;;;;;;;3.72;3.45;;;-4.20;99.90;;;;;;6074860;23;20386;-79
2021/12/10 08:21:02;;;;;;;4.97;4.22;;;-4.00;99.90;;;;;;6104789;23;20065;-79
2021/12/10 08:23:36;;;;;;;6.32;4.47;;;-3.80;99.90;;;;;;6097952;23;20022;-79
2021/12/10 08:26:12;;;;;;;4.65;4.10;;;-3.80;99.90;;;;;;6083833;23;20450;-79
2021/12/10 08:28:42;;;;;;;5.50;5.00;;;-3.90;99.90;;;;;;6103539;23;20025;-79
2021/12/10 08:31:15;;;;;;;5.13;4.63;;;-3.90;99.90;;;;;;6098002;23;20046;-79
2021/12/10 08:33:47;;;;;;;5.38;4.80;;;-3.90;99.90;;;;;;6077931;23;20033;-79
2021/12/10 08:36:19;;;;;;;6.80;5.57;;;-4.00;99.90;;;;;;6094726;23;20026;-79
2021/12/10 08:38:47;;;;;;;3.72;3.28;;;-3.90;99.90;;;;;;6099030;23;20033;-79
2021/12/10 08:41:22;;;;;;;6.95;5.15;;;-3.90;99.90;;;;;;6097523;23;20018;-79
2021/12/10 08:43:50;;;;;;;5.43;4.93;;;-3.80;99.90;;;;;;6070995;23;20347;-79
2021/12/10 08:46:18;;;;;;;7.43;6.72;;;-3.70;99.90;;;;;;6103022;23;20019;-79
2021/12/10 08:48:48;;;;;;;6.28;5.43;;;-3.60;99.90;;;;;;6076588;23;20014;-79
2021/12/10 08:51:22;;;;;;;6.35;4.88;;;-3.50;99.90;;;;;;6066050;23;20022;-79
2021/12/10 08:53:52;;;;;;;5.78;5.28;;;-3.50;99.90;;;;;;6104394;23;20010;-79
2021/12/10 08:56:20;;;;;;;10.50;4.13;;;-3.40;99.90;;;;;;6092899;23;20034;-79
2021/12/10 08:58:49;;;;;;;2.45;2.25;;;-3.30;99.90;;;;;;6100107;23;20018;-79
2021/12/10 09:01:25;;;;;;;5.88;5.20;;;-3.10;99.90;;;;;;6104125;23;20472;-79
2021/12/10 09:03:56;;;;;;;2.08;1.98;;;-2.80;99.90;;;;;;6096424;23;20026;-79
2021/12/10 09:06:29;;;;;;;2.42;2.28;;;-2.70;99.90;;;;;;6077131;23;20022;-79
2021/12/10 09:09:02;;;;;;;;;;;-2.50;99.90;;;;;;6070046;23;20025;-79
2021/12/10 09:11:34;;;;;;;3.25;2.92;;;-2.50;99.90;;;;;;6072382;23;19925;-79
2021/12/10 09:14:23;;;;;;;2.75;2.55;;;-2.50;99.90;;;;;;6079910;23;20442;-79
2021/12/10 09:16:53;;;;;;;6.05;3.63;;;-2.50;99.90;;;;;;6079341;23;20029;-79
2021/12/10 09:19:22;;;;;;;4.80;4.07;;;-2.30;99.90;;;;;;6098854;23;20027;-80
2021/12/10 09:21:51;;;;;;;1.80;1.70;;;-2.20;99.90;;;;;;6078623;23;20018;-80
2021/12/10 09:24:31;;;;;;;2.80;2.60;;;-2.10;99.90;;;;;;6068859;23;20629;-79
2021/12/10 09:27:10;;;;;;;3.65;3.35;;;-1.80;99.90;;;;;;6044110;23;20048;-80
2021/12/10 09:29:43;;;;;;;1.65;1.63;;;-0.70;99.90;;;;;;6079652;23;20014;-80
2021/12/10 09:32:26;;;;;;;3.42;2.67;;;-0.10;99.90;;;;;;6070948;23;20026;-80
2021/12/10 09:34:56;;;;;;;1.95;1.85;;;-0.30;99.90;;;;;;6100427;23;20022;-80
2021/12/10 09:37:38;;;;;;;7.57;2.88;;;-0.40;99.90;;;;;;6104225;23;20022;-81
2021/12/10 09:40:25;;;;;;;2.17;2.08;;;-0.70;99.90;;;;;;6094389;23;20034;-80
2021/12/10 09:42:55;;;;;;;4.50;2.83;;;-0.60;99.90;;;;;;6050565;23;20025;-81
2021/12/10 09:45:31;;;;;;;4.05;3.20;;;-0.40;99.90;;;;;;6104775;23;20018;-83
2021/12/10 09:48:00;;;;;;;;;;;-0.20;99.90;;;;;;6066863;23;20030;-82
2021/12/10 09:50:31;;;;;;;6.18;4.30;;;-0.30;99.90;;;;;;6099803;23;20218;-84
2021/12/10 09:52:59;;;;;;;3.42;3.17;;;-0.40;99.90;;;;;;6104469;23;20319;-83
2021/12/10 09:55:27;;;;;;;2.25;2.15;;;-0.50;99.90;;;;;;6068465;23;20608;-82
2021/12/10 09:57:56;;;;;;;5.50;4.00;;;-0.40;99.90;;;;;;6078814;23;20329;-83
2021/12/10 10:00:36;;;;;;;5.68;4.45;;;-0.40;99.90;;;;;;6044023;23;20369;-85
2021/12/10 10:03:09;;;;;;;2.33;2.13;;;-0.50;99.90;;;;;;6074490;23;20014;-85
2021/12/10 10:06:55;;;;;;;4.45;3.55;;;-0.30;99.90;;;;;;6103630;23;20010;-84
2021/12/10 10:11:27;;;;;;;3.22;2.95;;;-0.30;99.90;;;;;;6093265;23;20022;-83
2021/12/10 10:13:56;;;;;;;4.45;3.00;;;-0.30;99.90;;;;;;6078157;23;20021;-80
2021/12/10 10:16:31;;;;;;;3.17;2.90;;;-0.20;99.90;;;;;;6067949;23;20030;-83
2021/12/10 10:20:20;;;;;;;4.78;4.38;;;-0.10;99.90;;;;;;6020649;23;20026;-83
2021/12/10 10:24:18;;;;;;;3.30;3.10;;;0.00;99.90;;;;;;6086835;23;20036;-83
2021/12/10 10:31:51;;;;;;;1.73;1.63;;;0.40;99.90;;;;;;6145303;23;20022;-81
2021/12/10 10:34:21;;;;;;;2.58;2.40;;;0.30;99.90;;;;;;6102338;23;20030;-83
2021/12/10 10:37:00;;;;;;;4.00;3.70;;;0.30;99.90;;;;;;6112912;23;20009;-83
2021/12/10 10:39:43;;;;;;;2.47;2.28;;;0.30;99.90;;;;;;6080437;23;20025;-83
2021/12/10 10:43:04;;;;;;;3.40;2.70;;;0.40;99.90;;;;;;6100930;23;20434;-84
2021/12/10 10:45:44;;;;;;;3.25;3.03;;;0.40;99.90;;;;;;6127952;23;20017;-84
2021/12/10 10:48:19;;;;;;;2.20;2.00;;;0.60;99.90;;;;;;6101395;23;20025;-84
2021/12/10 10:50:58;;;;;;;2.92;2.75;;;0.60;99.90;;;;;;6079637;23;20021;-83
2021/12/10 10:53:55;;;;;;;11.18;2.75;;;0.50;99.90;;;;;;6082599;23;20014;-84
2021/12/10 10:56:46;;;;;;;3.35;2.08;;;0.30;99.90;;;;;;6113756;23;20022;-84
2021/12/10 10:59:25;;;;;;;2.80;2.55;;;0.30;99.90;;;;;;6106750;23;20061;-84
2021/12/10 11:02:08;;;;;;;2.17;2.08;;;0.20;99.90;;;;;;6112548;23;20013;-84
2021/12/10 11:04:53;;;;;;;3.05;2.80;;;0.30;99.90;;;;;;6033950;23;20352;-84
2021/12/10 11:07:37;;;;;;;2.38;2.10;;;0.40;99.90;;;;;;6126712;23;20033;-84
2021/12/10 11:10:22;;;;;;;2.88;2.65;;;0.50;99.90;;;;;;6145631;23;20025;-84
2021/12/10 11:18:04;;;;;;;4.57;3.83;;;0.50;99.90;;;;;;6035314;23;20019;-83
2021/12/10 11:31:06;;;;;;;3.92;2.33;;;0.60;99.90;;;;;;5813391;24;20471;-84
2021/12/10 11:40:01;;;;;;;6.10;3.67;;;1.00;99.90;;;;;;6056392;23;20017;-85
2021/12/10 11:42:47;;;;;;;2.03;1.90;;;1.00;99.90;;;;;;6078349;23;20249;-83
2021/12/10 11:46:02;;;;;;;2.38;1.90;;;1.10;99.90;;;;;;6101865;23;20024;-84
2021/12/10 11:48:36;;;;;;;3.17;2.45;;;1.30;99.90;;;;;;6058329;23;20022;-84
2021/12/10 11:51:14;;;;;;;2.50;2.03;;;1.40;99.90;;;;;;6126783;23;20033;-84
2021/12/10 11:54:16;;;;;;;2.97;2.60;;;1.60;99.90;;;;;;6077861;23;20025;-84
2021/12/10 11:57:39;;;;;;;2.50;2.25;;;1.50;99.90;;;;;;6059534;23;20030;-84
2021/12/10 12:01:03;;;;;;;5.03;2.45;;;1.40;99.90;;;;;;6012110;23;20282;-84
2021/12/10 12:04:39;;;;;;;2.08;1.95;;;1.30;99.90;;;;;;6030593;23;20019;-84
2021/12/10 12:08:24;;;;;;;2.55;2.35;;;1.10;99.90;;;;;;5965000;23;20035;-84
2021/12/10 12:12:26;;;;;;;2.63;2.17;;;1.00;99.90;;;;;;5915124;24;20031;-84
2021/12/10 12:16:13;;;;;;;;;;;;;;;;;;;;;
2021/12/10 12:20:17;;;;;;;2.53;2.42;;;1.00;99.90;;;;;;5958358;23;20347;-88
2021/12/10 12:41:18;;;;;;;3.35;3.10;;;1.10;99.90;;;;;;5849952;24;20079;-88
2021/12/10 12:44:34;;;;;;;2.50;2.30;;;1.10;99.90;;;;;;5873703;24;20021;-85
2021/12/10 12:47:41;;;;;;;2.92;2.60;;;1.00;99.90;;;;;;5963434;23;20387;-85
2021/12/10 12:50:29;;;;;;;2.95;2.75;;;1.20;99.90;;;;;;6001234;23;20025;-86
2021/12/10 12:53:29;;;;;;;5.63;2.95;;;1.10;99.90;;;;;;6062211;23;20033;-88
2021/12/10 12:56:07;;;;;;;2.25;2.05;;;1.00;99.90;;;;;;6017231;23;20034;-85
2021/12/10 12:59:05;;;;;;;3.20;2.90;;;1.00;99.90;;;;;;6049922;23;20029;-84
2021/12/10 13:01:47;;;;;;;2.65;2.45;;;1.00;99.90;;;;;;6110668;23;20014;-84
2021/12/10 13:04:25;;;;;;;3.20;2.92;;;0.90;99.90;;;;;;6124444;23;20033;-86
2021/12/10 13:07:20;;;;;;;3.97;3.60;;;0.70;99.90;;;;;;6102954;23;20030;-85
2021/12/10 13:09:57;;;;;;;9.18;3.42;;;0.50;99.90;;;;;;6077184;23;20026;-86
2021/12/10 13:12:42;;;;;;;4.28;3.20;;;0.60;99.90;;;;;;6098738;23;20323;-84
2021/12/10 13:15:15;;;;;;;7.57;4.53;;;0.70;99.90;;;;;;6104054;23;20025;-85
2021/12/10 13:17:59;;;;;;;3.55;2.90;;;0.70;99.90;;;;;;6109553;23;20333;-87
2021/12/10 13:20:34;;;;;;;3.65;3.25;;;0.60;99.90;;;;;;6098018;23;20037;-82
2021/12/10 13:23:08;;;;;;;2.83;2.63;;;0.50;99.90;;;;;;6069763;23;20635;-81
2021/12/10 13:25:39;;;;;;;2.90;2.50;;;0.40;99.90;;;;;;6108193;23;20025;-81
2021/12/10 13:28:07;;;;;;;4.38;3.55;;;0.50;99.90;;;;;;6097335;23;20033;-81
2021/12/10 13:30:48;;;;;;;4.65;3.97;;;0.40;99.90;;;;;;6131117;23;20026;-84
2021/12/10 13:33:24;;;;;;;2.60;2.40;;;0.40;99.90;;;;;;6126348;23;20017;-85
2021/12/10 13:35:55;;;;;;;2.72;2.47;;;0.30;99.90;;;;;;6129607;23;20029;-83
2021/12/10 13:38:25;;;;;;;4.78;3.20;;;0.30;99.90;;;;;;6134259;23;20017;-82
2021/12/10 13:40:53;;;;;;;6.00;3.05;;;0.50;99.90;;;;;;6078891;23;20528;-80
2021/12/10 13:43:25;;;;;;;4.30;3.38;;;0.60;99.90;;;;;;6130948;23;20029;-84
2021/12/10 13:46:12;;;;;;;3.80;3.45;;;0.60;99.90;;;;;;6126892;23;20338;-83
2021/12/10 13:48:50;;;;;;;3.40;3.10;;;0.50;99.90;;;;;;6069510;23;20456;-81
2021/12/10 13:51:27;;;;;;;3.15;2.58;;;0.50;99.90;;;;;;6102020;23;20076;-83
2021/12/10 13:53:59;;;;;;;5.05;3.38;;;0.40;99.90;;;;;;6126534;23;20018;-83
2021/12/10 13:56:38;;;;;;;5.05;4.57;;;0.50;99.90;;;;;;6077549;23;20345;-84
2021/12/10 13:59:08;;;;;;;2.85;2.65;;;0.10;99.90;;;;;;6100937;23;20036;-85
2021/12/10 14:01:38;;;;;;;6.28;2.63;;;0.10;99.90;;;;;;6079047;23;20017;-83
2021/12/10 14:04:20;;;;;;;2.75;2.58;;;0.10;99.90;;;;;;6101316;23;20025;-84
2021/12/10 14:07:03;;;;;;;2.38;2.10;;;0.10;99.90;;;;;;6102793;23;20018;-83
2021/12/10 14:09:43;;;;;;;2.50;2.30;;;0.30;99.90;;;;;;6137538;23;20036;-83
2021/12/10 14:12:38;;;;;;;2.60;2.40;;;0.40;99.90;;;;;;6100741;23;20033;-83
2021/12/10 14:15:12;;;;;;;2.50;2.35;;;0.50;99.90;;;;;;6102932;23;20033;-85
2021/12/10 14:17:58;;;;;;;3.40;3.10;;;0.50;99.90;;;;;;6111905;23;20477;-84
2021/12/10 14:21:15;;;;;;;2.70;2.40;;;0.60;99.90;;;;;;6091318;23;20036;-84
2021/12/10 14:24:03;;;;;;;2.67;2.47;;;0.60;99.90;;;;;;6102826;23;20025;-84
2021/12/10 14:27:06;;;;;;;3.90;3.70;;;0.60;99.90;;;;;;6138783;23;20021;-85
2021/12/10 14:30:20;;;;;;;4.50;2.88;;;0.50;99.90;;;;;;6104444;23;20017;-84
2021/12/10 14:58:13;;;;;;;3.97;3.67;;;0.00;99.90;;;;;;6116976;23;20022;-93
2021/12/10 15:06:03;;;;;;;2.67;2.35;;;0.00;99.90;;;;;;6099611;23;20022;31